logo dgac
Miércoles 19 de Junio del 2019

Metar

Buscar por aerodromo o helipuerto
Ingrese nombre de aeródromo, localidad o designador OACI:


METAR del 19-06-2019 a las 08:00 UTC
METAR SCFA 190800Z 02006KT CAVOK 12/10 Q1011 NOSIG
Viento: dirección 020 grados, velocidad 6 nudos
Visibilidad: 10 km o más,
    sin nubes bajo los 5.000 pies o bajo del MSA (Mínimo de Seguridad del Aeródromo),
    sin cumulonimbus, y sin fenómenos de tiempo significativo en el aeródromo o alrededores
Temperatura: 12 °C
Rocío: 10 °C
Humedad_relativa: 88%
Presión: 1011 hPa
No se esperan cambios significativos en las próximas 2 horas
METAR del 19-06-2019 a las 08:00 UTC
METAR SCIP 190800Z 19014KT 150V220 9999 FEW025 SCT040 16/09 Q1019 NOSIG
Viento: dirección 190 grados, velocidad 14 nudos
Viento con dirección variable entre 150 y 220 grados
Visibilidad: 10 km o más
Nubes: Escasa nubosidad a 2500 pies sobre el nivel del aeródromo
Nubes: Nubosidad parcial a 4000 pies sobre el nivel del aeródromo
Temperatura: 16 °C
Rocío: 9 °C
Humedad_relativa: 63%
Presión: 1019 hPa
No se esperan cambios significativos en las próximas 2 horas
METAR del 19-06-2019 a las 07:00 UTC
METAR SLVR 190700Z 18012G24KT 6000 -RA BKN012 OVC017 15/14 Q1016
Viento: dirección 180 grados, velocidad 12 nudos, con ráfagas de velocidad máxima de 24Nudos
Visibilidad: 6000 metros
Débil Lluvia
Nubes: Nublado a 1200 pies sobre el nivel del aeródromo
Nubes: Cubierto a 1700 pies sobre el nivel del aeródromo
Temperatura: 15 °C
Rocío: 14 °C
Humedad_relativa: 94%
Presión: 1016 hPa
METAR del 19-06-2019 a las 07:00 UTC
METAR SLLP 190700Z 02003KT 9999 NSC M04/M10 Q1040
Viento: dirección 020 grados, velocidad 3 nudos
Visibilidad: 10 km o más
Sin nubes bajo los 5000 pies o bajo del MSA (Mínimo de Seguridad del Aeródromo)
Temperatura: -4 °C
Rocío: -10 °C
Humedad_relativa: 63%
Presión: 1040 hPa
METAR del 19-06-2019 a las 07:00 UTC
METAR SUMU 190700Z 33018T CAVOK 11/05 Q1009 NOSIG
Nan: 33018T
Visibilidad: 10 km o más,
    sin nubes bajo los 5.000 pies o bajo del MSA (Mínimo de Seguridad del Aeródromo),
    sin cumulonimbus, y sin fenómenos de tiempo significativo en el aeródromo o alrededores
Temperatura: 11 °C
Rocío: 5 °C
Humedad_relativa: 66%
Presión: 1009 hPa
No se esperan cambios significativos en las próximas 2 horas
METAR del 19-06-2019 a las 07:00 UTC
METAR SPJC 190700Z VRB02KT 8000 OVC010 16/15 Q1012 NOSIG RMK PP000
Viento: dirección variable, velocidad 2 nudos
Visibilidad: 8000 metros
Nubes: Cubierto a 1000 pies sobre el nivel del aeródromo
Temperatura: 16 °C
Rocío: 15 °C
Humedad_relativa: 94%
Presión: 1012 hPa
No se esperan cambios significativos en las próximas 2 horas
Información adicional:
Nan: PP000
METAR del 19-06-2019 a las 07:00 UTC
METAR SGAS 190700Z 20014KT 170V230 9999 -RA BKN007 OVC012 16/15 Q1018
Viento: dirección 200 grados, velocidad 14 nudos
Viento con dirección variable entre 170 y 230 grados
Visibilidad: 10 km o más
Débil Lluvia
Nubes: Nublado a 700 pies sobre el nivel del aeródromo
Nubes: Cubierto a 1200 pies sobre el nivel del aeródromo
Temperatura: 16 °C
Rocío: 15 °C
Humedad_relativa: 94%
Presión: 1018 hPa
METAR del 19-06-2019 a las 07:00 UTC
METAR SBPA 190700Z 27008KT 9999 FEW030 BKN100 19/18 Q1015
Viento: dirección 270 grados, velocidad 8 nudos
Visibilidad: 10 km o más
Nubes: Escasa nubosidad a 3000 pies sobre el nivel del aeródromo
Nubes: Nublado a 10000 pies sobre el nivel del aeródromo
Temperatura: 19 °C
Rocío: 18 °C
Humedad_relativa: 94%
Presión: 1015 hPa
METAR del 19-06-2019 a las 07:00 UTC
METAR SBGR 190700Z 06004KT 8000 NSC 13/13 Q1021
Viento: dirección 060 grados, velocidad 4 nudos
Visibilidad: 8000 metros
Sin nubes bajo los 5000 pies o bajo del MSA (Mínimo de Seguridad del Aeródromo)
Temperatura: 13 °C
Rocío: 13 °C
Humedad_relativa: 100%
Presión: 1021 hPa
METAR del 19-06-2019 a las 07:00 UTC
METAR SBGL 190700Z 11002KT CAVOK 19/18 Q1018
Viento: dirección 110 grados, velocidad 2 nudos
Visibilidad: 10 km o más,
    sin nubes bajo los 5.000 pies o bajo del MSA (Mínimo de Seguridad del Aeródromo),
    sin cumulonimbus, y sin fenómenos de tiempo significativo en el aeródromo o alrededores
Temperatura: 19 °C
Rocío: 18 °C
Humedad_relativa: 94%
Presión: 1018 hPa